• pl
  • eng

Awiacja
WIADOMOŚCI
ostatnia aktualizacja: 17.04.2020 19:04
Szanowni Państwo,

mając na uwadze sytuację związaną z pandemią wywołaną koronawirusem SARS-Cov-2 oraz w trosce o bezpieczeństwo Państwa oraz naszych pracowników, IMGW-PIB podjął decyzję o przeniesieniu kolejnej edycji Szkoły Meteorologii Lotniczej na przyszły rok. W tej chwili podanie dokładnego terminu szkoły nie jest możliwe, ale jak tylko będzie znany zostanie ogłoszony na naszych stronach internetowych, do których śledzenia serdecznie zapraszamy.

Komunikaty METAR z lotnisk wojskowych. 20:01 28.11.2020

METAR EPCE 281900Z 35004KT 310V050 9999 -SHRA BKN021TCU 03/02
Q1023 RMK 029 095 7/7=

METAR EPDA 281900Z 05006KT 020V080 9999 BKN027 06/02
Q1025 RMK 056 076 5/5=

METAR EPDE 281900Z 27004KT 5000 -SN BR BKN022 OVC040 M00/M01 Q1020
RMK M003 095 8/5=

METAR EPIR 281900Z AUTO 31008KT VV010 03/01 Q1022 RMK 025 090 ///=

METAR EPKS 281900Z 30006KT 9999 OVC047 02/02 Q1024 RMK 024 098 8/8=

METAR EPLK 281900Z 31005KT 9999 OVC035 M00/M00 Q1021 RMK M001 100
8/8=

METAR EPLY 281900Z 31004KT 9999 OVC039 02/M00 Q1021 RMK 021 085 8/8=

METAR EPMB 281900Z 32003KT 300V010 9999 BKN035 BKN060 03/02 Q1022 RMK
029 095 7/5=

METAR EPMI 281900Z 32005KT 9999 BKN020 03/01 Q1025 RMK 030 089 5/5=

METAR EPMM 281900Z 32005KT 6000 -SN BKN004 OVC010 00/M01 Q1019 RMK
000 096 8/7=

METAR EPNA 281900Z NIL=

METAR EPOK 281900Z 02007KT 340V060 9999 BKN015TCU 05/03
Q1023 RMK 051 086 6/6=

METAR EPPR 281900Z 01006KT 9999 -SHRA BKN033CB 05/02 Q1023 RMK 046
081 6/6=

METAR EPPW 281900Z 30006KT 9999 SCT017 BKN023 03/03 Q1023 RMK
028 098 7/4=

METAR EPRA 281900Z 30004KT 9999 OVC020 M00/M01 Q1020 RMK M003 092
8/8=

METAR EPSN 281900Z 31005KT 9999 -SHRA SCT017CB BKN020 02/02 Q1025
RMK 022 100 7/4=

METAR EPTM 281900Z AUTO 30006KT VV027 00/M02 Q1021 RMK 001 083 ///=
Awiacja.imgw.pl jest pogodowym serwisem informacyjnym
Instytutu Meteorologii i Gospodarki Wodnej Państwowego Instytutu Badawczego.
Copyright IMGW PIB 2009-2019© Wszelkie prawa zastrzeżone.